createdAt,value
2018-05-23T00:03:18.676Z,99.90
2018-05-23T00:07:24.630Z,99.90
2018-05-23T00:11:27.634Z,99.90
2018-05-23T00:15:30.892Z,99.90
2018-05-23T00:19:33.550Z,99.90
2018-05-23T00:23:36.117Z,99.90
2018-05-23T00:27:38.658Z,99.90
2018-05-23T00:31:42.185Z,99.90
2018-05-23T00:35:46.321Z,99.90
2018-05-23T00:39:50.660Z,99.90
2018-05-23T00:43:54.702Z,99.90
2018-05-23T00:47:58.684Z,99.90
2018-05-23T00:52:01.767Z,99.90
2018-05-23T00:56:07.872Z,99.90
2018-05-23T01:00:10.398Z,99.90
2018-05-23T01:04:13.715Z,99.90
2018-05-23T01:08:19.712Z,99.90
2018-05-23T01:12:24.004Z,99.90
2018-05-23T01:16:27.304Z,99.90
2018-05-23T01:20:31.623Z,99.90
2018-05-23T01:24:34.905Z,99.90
2018-05-23T01:28:37.684Z,99.90
2018-05-23T01:32:40.202Z,99.90
2018-05-23T01:36:43.282Z,99.90
2018-05-23T01:40:47.363Z,99.90
2018-05-23T01:44:50.731Z,99.90
2018-05-23T01:49:05.210Z,99.90
2018-05-23T01:53:08.574Z,99.90
2018-05-23T01:57:11.153Z,99.90
2018-05-23T02:01:15.115Z,99.90
2018-05-23T02:05:20.345Z,99.90
2018-05-23T02:09:23.560Z,99.90
2018-05-23T02:13:26.744Z,99.90
2018-05-23T02:17:29.691Z,99.90
2018-05-23T02:21:32.268Z,99.90
2018-05-23T02:25:34.819Z,99.90
2018-05-23T02:29:43.914Z,99.90
2018-05-23T02:33:50.455Z,99.90
2018-05-23T02:37:54.008Z,99.90
2018-05-23T02:41:57.950Z,99.90
2018-05-23T02:46:02.397Z,99.90
2018-05-23T02:50:04.954Z,99.90
2018-05-23T02:54:07.470Z,99.90
2018-05-23T02:58:15.648Z,99.90
2018-05-23T03:02:20.558Z,99.90
2018-05-23T03:06:24.148Z,99.90
2018-05-23T03:10:27.160Z,99.90
2018-05-23T03:14:30.502Z,99.90
2018-05-23T03:18:33.131Z,99.90
2018-05-23T03:22:35.690Z,99.90
2018-05-23T03:26:38.220Z,99.90
2018-05-23T03:30:41.842Z,99.90
2018-05-23T03:34:44.441Z,99.90
2018-05-23T03:38:48.362Z,99.90
2018-05-23T03:42:52.541Z,99.90
2018-05-23T03:47:00.783Z,99.90
2018-05-23T03:51:03.326Z,99.90
2018-05-23T03:55:05.871Z,99.90
2018-05-23T03:59:16.126Z,99.90
2018-05-23T04:03:30.949Z,99.90
2018-05-23T04:07:38.202Z,99.90
2018-05-23T04:11:40.859Z,99.90
2018-05-23T04:15:44.284Z,99.90
2018-05-23T04:19:49.322Z,99.90
2018-05-23T04:23:53.989Z,99.90
2018-05-23T04:28:00.219Z,99.90
2018-05-23T04:32:16.691Z,99.90
2018-05-23T04:36:23.896Z,99.90
2018-05-23T04:40:27.083Z,99.90
2018-05-23T04:44:30.716Z,99.90
2018-05-23T04:48:33.278Z,99.90
2018-05-23T04:52:44.207Z,99.90
2018-05-23T04:56:53.600Z,99.90
2018-05-23T05:00:57.487Z,99.90
2018-05-23T05:05:03.183Z,99.90
2018-05-23T05:09:14.039Z,99.90
2018-05-23T05:13:19.690Z,99.90
2018-05-23T05:17:24.607Z,99.90
2018-05-23T05:21:28.678Z,99.90
2018-05-23T05:25:33.774Z,99.90
2018-05-23T05:29:44.203Z,99.90
2018-05-23T05:33:50.359Z,99.90
2018-05-23T05:38:01.988Z,99.90
2018-05-23T05:42:04.794Z,99.90
2018-05-23T05:46:19.710Z,99.90
2018-05-23T05:50:23.675Z,99.90
2018-05-23T05:54:28.416Z,99.90
2018-05-23T05:58:32.311Z,99.90
2018-05-23T06:02:35.915Z,99.90
2018-05-23T06:06:38.582Z,99.90
2018-05-23T06:10:44.653Z,99.90
2018-05-23T06:14:49.398Z,99.90
2018-05-23T06:18:53.404Z,99.90
2018-05-23T06:22:58.727Z,99.90
2018-05-23T06:27:02.457Z,99.90
2018-05-23T06:31:05.724Z,99.90
2018-05-23T06:35:08.252Z,99.90
2018-05-23T06:39:18.954Z,99.90
2018-05-23T06:43:25.269Z,99.90
2018-05-23T06:47:29.038Z,99.90
2018-05-23T06:51:31.724Z,99.90
2018-05-23T06:55:34.304Z,99.90
2018-05-23T06:59:43.855Z,99.90
2018-05-23T07:03:52.102Z,99.90
2018-05-23T07:07:54.864Z,99.90
2018-05-23T07:11:59.006Z,99.90
2018-05-23T07:16:02.435Z,99.90
2018-05-23T07:20:06.383Z,99.90
2018-05-23T07:24:08.931Z,99.90
2018-05-23T07:28:11.927Z,99.90
2018-05-23T07:32:23.979Z,99.90
2018-05-23T07:36:28.120Z,99.90
2018-05-23T07:40:30.929Z,99.90
2018-05-23T07:44:33.597Z,99.90
2018-05-23T07:48:47.394Z,99.90
2018-05-23T07:52:51.672Z,99.90
2018-05-23T07:56:54.826Z,99.90
2018-05-23T08:00:58.116Z,99.90
2018-05-23T08:05:01.323Z,99.90
2018-05-23T08:09:04.272Z,99.90
2018-05-23T08:13:06.807Z,99.90
2018-05-23T08:17:12.952Z,99.90
2018-05-23T08:21:15.702Z,99.90
2018-05-23T08:25:23.936Z,99.90
2018-05-23T08:29:28.895Z,99.90
2018-05-23T08:33:32.089Z,99.90
2018-05-23T08:37:34.631Z,99.90
2018-05-23T08:41:38.116Z,99.90
2018-05-23T08:45:40.751Z,99.90
2018-05-23T08:49:49.283Z,99.90
2018-05-23T08:54:04.382Z,99.90
2018-05-23T08:58:09.394Z,99.90
2018-05-23T09:02:12.676Z,99.90
2018-05-23T09:06:19.659Z,99.90
2018-05-23T09:10:23.446Z,99.90
2018-05-23T09:14:26.171Z,99.90
2018-05-23T09:18:29.935Z,99.90
2018-05-23T09:22:33.247Z,99.90
2018-05-23T09:26:48.415Z,99.90
2018-05-23T09:30:53.295Z,99.90
2018-05-23T09:34:56.886Z,99.90
2018-05-23T09:38:59.811Z,99.90
2018-05-23T09:43:02.350Z,99.90
2018-05-23T09:47:05.059Z,99.90
2018-05-23T09:51:14.003Z,99.90
2018-05-23T09:55:22.727Z,99.90
2018-05-23T09:59:27.658Z,99.90
2018-05-23T10:03:30.706Z,99.90
2018-05-23T10:07:45.132Z,99.90
2018-05-23T10:11:54.047Z,99.90
2018-05-23T10:15:57.734Z,99.90
2018-05-23T10:20:00.702Z,99.90
2018-05-23T10:24:03.414Z,99.90
2018-05-23T10:28:06.322Z,99.90
2018-05-23T10:32:08.904Z,99.90
2018-05-23T10:36:13.499Z,99.90
2018-05-23T10:44:31.912Z,99.90
2018-05-23T10:48:35.265Z,99.90
2018-05-23T10:52:45.952Z,99.90
2018-05-23T10:56:52.913Z,99.90
2018-05-23T11:01:01.638Z,99.90
2018-05-23T11:05:05.336Z,99.90
2018-05-23T11:09:07.891Z,99.90
2018-05-23T11:13:10.481Z,99.90
2018-05-23T11:17:13.919Z,99.90
2018-05-23T11:21:27.194Z,99.90
2018-05-23T11:25:30.476Z,99.90
2018-05-23T11:29:37.783Z,99.90
2018-05-23T11:33:40.358Z,99.90
2018-05-23T11:37:47.306Z,99.90
2018-05-23T11:41:51.740Z,99.90
2018-05-23T11:45:55.001Z,99.90
2018-05-23T11:49:59.301Z,99.90
2018-05-23T11:54:03.112Z,99.90
2018-05-23T11:58:05.770Z,99.90
2018-05-23T12:02:08.325Z,99.90
2018-05-23T12:06:11.742Z,99.90
2018-05-23T12:10:16.106Z,99.90
2018-05-23T12:14:24.691Z,99.90
2018-05-23T12:18:27.875Z,99.90
2018-05-23T12:22:30.555Z,99.90
2018-05-23T12:26:33.136Z,99.90
2018-05-23T12:30:35.715Z,99.90
2018-05-23T12:34:38.324Z,99.90
2018-05-23T12:38:41.972Z,99.90
2018-05-23T12:42:44.681Z,99.90
2018-05-23T12:46:48.732Z,99.90
2018-05-23T12:50:54.764Z,99.90
2018-05-23T12:54:59.052Z,99.90
2018-05-23T12:59:18.034Z,99.90
2018-05-23T13:03:21.270Z,99.90
2018-05-23T13:07:28.089Z,99.90
2018-05-23T13:11:31.615Z,99.90
2018-05-23T13:15:44.553Z,99.90
2018-05-23T13:19:49.319Z,99.40
2018-05-23T13:23:52.953Z,98.80
2018-05-23T13:27:56.471Z,98.60
2018-05-23T13:31:59.279Z,98.00
2018-05-23T13:36:10.402Z,97.20
2018-05-23T13:40:12.926Z,97.70
2018-05-23T13:44:16.901Z,98.40
2018-05-23T13:48:21.606Z,97.80
2018-05-23T13:52:27.830Z,96.30
2018-05-23T13:56:32.236Z,96.60
2018-05-23T14:00:34.897Z,96.60
2018-05-23T14:04:39.211Z,96.90
2018-05-23T14:08:41.774Z,96.90
2018-05-23T14:12:44.460Z,95.60
2018-05-23T14:16:48.573Z,95.30
2018-05-23T14:20:51.441Z,95.30
2018-05-23T14:24:54.798Z,94.40
2018-05-23T14:28:57.970Z,94.10
2018-05-23T14:33:00.655Z,93.80
2018-05-23T14:37:03.959Z,92.60
2018-05-23T14:41:10.411Z,92.60
2018-05-23T14:45:16.965Z,92.60
2018-05-23T14:49:20.533Z,93.20
2018-05-23T14:53:24.646Z,91.30
2018-05-23T14:57:28.342Z,90.80
2018-05-23T15:01:31.668Z,90.80
2018-05-23T15:05:38.225Z,89.70
2018-05-23T15:09:48.938Z,89.00
2018-05-23T15:13:54.237Z,88.70
2018-05-23T15:17:57.076Z,89.30
2018-05-23T15:21:59.794Z,91.10
2018-05-23T15:26:02.393Z,90.70
2018-05-23T15:30:05.079Z,90.80
2018-05-23T15:34:15.338Z,90.50
2018-05-23T15:38:21.513Z,89.90
2018-05-23T15:42:26.036Z,88.30
2018-05-23T15:46:29.954Z,88.20
2018-05-23T15:50:33.803Z,90.10
2018-05-23T15:55:03.310Z,89.60
2018-05-23T15:59:09.534Z,88.10
2018-05-23T16:03:12.179Z,84.30
2018-05-23T16:07:17.154Z,80.70
2018-05-23T16:11:21.062Z,80.80
2018-05-23T16:15:24.055Z,81.80
2018-05-23T16:19:27.811Z,81.50
2018-05-23T16:23:31.194Z,79.90
2018-05-23T16:27:33.894Z,80.70
2018-05-23T16:31:36.436Z,81.70
2018-05-23T16:35:45.132Z,83.50
2018-05-23T16:39:53.869Z,85.40
2018-05-23T16:43:57.029Z,85.10
2018-05-23T16:48:00.734Z,86.40
2018-05-23T16:52:04.226Z,88.30
2018-05-23T16:56:08.662Z,88.30
2018-05-23T17:00:17.896Z,89.30
2018-05-23T17:04:21.215Z,90.80
2018-05-23T17:08:25.256Z,92.80
2018-05-23T17:12:28.217Z,93.50
2018-05-23T17:16:31.755Z,94.40
2018-05-23T17:20:34.275Z,94.40
2018-05-23T17:24:37.663Z,95.50
2018-05-23T17:28:40.190Z,95.40
2018-05-23T17:32:47.304Z,96.00
2018-05-23T17:36:51.219Z,96.10
2018-05-23T17:40:54.874Z,96.00
2018-05-23T17:44:57.894Z,96.40
2018-05-23T17:49:04.638Z,96.30
2018-05-23T17:53:10.310Z,96.30
2018-05-23T17:57:14.848Z,96.50
2018-05-23T18:01:24.225Z,96.50
2018-05-23T18:05:27.675Z,96.70
2018-05-23T18:09:30.311Z,96.60
2018-05-23T18:13:36.039Z,97.30
2018-05-23T18:17:49.523Z,97.30
2018-05-23T18:21:54.404Z,97.40
2018-05-23T18:25:57.447Z,96.90
2018-05-23T18:30:06.169Z,97.00
2018-05-23T18:34:10.691Z,97.00
2018-05-23T18:38:15.208Z,97.30
2018-05-23T18:42:19.365Z,97.10
2018-05-23T18:46:23.106Z,97.40
2018-05-23T18:50:26.953Z,97.40
2018-05-23T18:54:29.717Z,97.40
2018-05-23T18:58:37.483Z,97.40
2018-05-23T19:02:42.067Z,97.60
2018-05-23T19:06:50.330Z,97.70
2018-05-23T19:10:55.179Z,98.10
2018-05-23T19:14:58.223Z,98.10
2018-05-23T19:19:01.197Z,98.30
2018-05-23T19:23:03.743Z,98.20
2018-05-23T19:27:12.219Z,98.20
2018-05-23T19:31:15.538Z,98.60
2018-05-23T19:35:20.474Z,98.60
2018-05-23T19:39:23.973Z,98.60
2018-05-23T19:43:27.038Z,98.50
2018-05-23T19:47:30.092Z,98.80
2018-05-23T19:51:32.615Z,99.10
2018-05-23T19:55:36.171Z,99.10
2018-05-23T19:59:49.684Z,99.30
2018-05-23T20:03:53.060Z,99.50
2018-05-23T20:07:56.341Z,99.90
2018-05-23T20:11:59.731Z,99.50
2018-05-23T20:16:02.282Z,99.50
2018-05-23T20:20:11.244Z,99.80
2018-05-23T20:24:14.648Z,99.80
2018-05-23T20:28:19.240Z,99.90
2018-05-23T20:32:23.067Z,99.90
2018-05-23T20:36:26.191Z,99.90
2018-05-23T20:40:29.177Z,99.90
2018-05-23T20:44:31.798Z,99.90
2018-05-23T20:48:34.390Z,99.90
2018-05-23T20:52:37.682Z,99.90
2018-05-23T20:56:44.446Z,99.90
2018-05-23T21:00:51.664Z,99.90
2018-05-23T21:04:57.170Z,99.90
2018-05-23T21:08:59.959Z,99.90
2018-05-23T21:13:02.780Z,99.90
2018-05-23T21:17:05.299Z,99.90
2018-05-23T21:21:11.610Z,99.90
2018-05-23T21:25:14.971Z,99.90
2018-05-23T21:29:19.013Z,99.90
2018-05-23T21:33:22.870Z,99.90
2018-05-23T21:37:25.710Z,99.90
2018-05-23T21:41:29.067Z,99.90
2018-05-23T21:45:32.403Z,99.90
2018-05-23T21:49:35.692Z,99.90
2018-05-23T21:53:38.258Z,99.90
2018-05-23T21:57:40.774Z,99.90
2018-05-23T22:01:47.422Z,99.90
2018-05-23T22:05:50.680Z,99.90
2018-05-23T22:09:53.822Z,99.90
2018-05-23T22:13:56.584Z,99.90
2018-05-23T22:17:59.522Z,99.90
2018-05-23T22:22:02.096Z,99.90
2018-05-23T22:26:05.438Z,99.90
2018-05-23T22:30:08.729Z,99.90
2018-05-23T22:34:11.306Z,99.90
2018-05-23T22:38:13.852Z,99.90
2018-05-23T22:42:18.170Z,99.90
2018-05-23T22:46:24.180Z,99.90
2018-05-23T22:50:27.138Z,99.90
2018-05-23T22:54:30.359Z,99.90
2018-05-23T22:58:33.035Z,99.90
2018-05-23T23:02:35.559Z,99.90
2018-05-23T23:06:38.899Z,99.90
2018-05-23T23:10:42.366Z,99.90
2018-05-23T23:14:45.212Z,99.90
2018-05-23T23:18:48.675Z,99.90
2018-05-23T23:22:52.133Z,99.90
2018-05-23T23:26:55.456Z,99.90
2018-05-23T23:30:58.531Z,99.90
2018-05-23T23:35:02.220Z,99.90
2018-05-23T23:39:04.794Z,99.90
2018-05-23T23:43:07.326Z,99.90
2018-05-23T23:47:09.875Z,99.90
2018-05-23T23:51:19.754Z,99.90
2018-05-23T23:55:24.628Z,99.90
2018-05-23T23:59:27.919Z,99.90
